Wabigoon, Canada
Current Conditions -  °F | °C
As of 7:00 PM on Friday 24 Oct 2014 (Local Time) from CYHD Reporting Station
Broken Clouds Broken Clouds  
Wind Chill: 59°   Ceiling: 8900
Heat Index: 59°   Visibility: 9mi
Dew Point: 43°   Wind: 12mph
Humidity: 55%   Direction: 250°WSW
Pressure: 29.58"   Gusts: NA
Location:  49.72°N, 92.6°W
Report Text: CYHD 250000Z AUTO 25010KT 9SM SCT075 BKN089 BKN250 15/06 A2958 RMK SLP025 DENSITY ALT 2000FT
Loading
Personal Weather Stations






























Interactive Weather Map
Tropical Storm Tracking
New forecast layout! Learn more

10-Day Weather Forecast

Advertisements
Track Severe Weather on mobile